Terminal Aerodrome Forecast
Issued by NWS

Home | Current Version | Previous Version | Graphics & Text | Print | Product List | Glossary On
Versions: 1 2 3 4 5 6 7 8 9 10 11 12 13 14 15 16 17 18
000
FTUS43 KABR 230900 AAB
TAFATY
TAF AMD
KATY 230933Z 2310/2406 VRB05KT 3SM BR SCT001
      TEMPO 2310/2313 1/2SM FG VV001
     FM231400 23005KT P6SM SKC=

USA.gov is the U.S. government's official web portal to all federal, state and local government web resources and services.